Time;durP1;ratioP1;P1;durP2;ratioP2;P2;SDS_P1;SDS_P2;PMS_P1;PMS_P2;Temp;Humidity;BMP_temperature;BMP_pressure;BME280_temperature;BME280_humidity;BME280_pressure;Samples;Min_cycle;Max_cycle;Signal;HPM_P1;HPM_P2
2023/10/30 00:02:11;;;;;;;2.50;0.50;;;9.80;99.90;;;;;;4999174;28;20033;-81
2023/10/30 00:04:37;;;;;;;3.97;0.60;;;9.70;99.90;;;;;;5015411;28;20388;-80
2023/10/30 00:07:04;;;;;;;4.80;0.73;;;9.70;99.90;;;;;;4982625;28;20361;-82
2023/10/30 00:09:31;;;;;;;4.30;0.60;;;9.70;99.90;;;;;;5014295;28;20032;-81
2023/10/30 00:11:57;;;;;;;3.75;0.65;;;9.60;99.90;;;;;;4997266;28;20069;-78
2023/10/30 00:14:23;;;;;;;2.92;0.57;;;9.60;99.90;;;;;;5015910;28;20033;-81
2023/10/30 00:16:50;;;;;;;8.27;0.82;;;9.60;99.90;;;;;;4982838;28;20029;-82
2023/10/30 00:19:16;;;;;;;13.23;1.52;;;9.60;99.90;;;;;;4998336;28;20021;-83
2023/10/30 00:21:43;;;;;;;4.70;0.73;;;9.60;99.90;;;;;;5029880;28;20104;-82
2023/10/30 00:24:09;;;;;;;5.13;0.98;;;9.70;99.90;;;;;;4976192;28;20049;-81
2023/10/30 00:26:35;;;;;;;6.82;1.60;;;9.70;99.90;;;;;;5016300;28;20048;-84
2023/10/30 00:29:02;;;;;;;4.10;0.90;;;9.70;99.90;;;;;;5014709;28;20025;-83
2023/10/30 00:31:29;;;;;;;6.47;0.70;;;9.70;99.90;;;;;;4982415;28;20128;-82
2023/10/30 00:33:55;;;;;;;6.40;0.90;;;9.70;99.90;;;;;;4998563;28;20370;-78
2023/10/30 00:36:21;;;;;;;6.97;0.90;;;9.80;99.90;;;;;;5012568;28;20512;-82
2023/10/30 00:38:47;;;;;;;9.73;1.95;;;9.80;99.90;;;;;;4998128;28;20055;-83
2023/10/30 00:41:14;;;;;;;9.52;1.10;;;9.80;99.90;;;;;;5015450;28;20392;-82
2023/10/30 00:43:41;;;;;;;10.40;1.42;;;9.90;99.90;;;;;;5014982;28;20045;-78
2023/10/30 00:46:08;;;;;;;7.35;1.15;;;9.90;99.90;;;;;;5015702;28;20044;-81
2023/10/30 00:48:35;;;;;;;6.70;1.20;;;9.90;99.90;;;;;;4998329;28;20037;-81
2023/10/30 00:51:01;;;;;;;10.38;1.30;;;10.00;99.90;;;;;;5016728;28;20507;-82
2023/10/30 00:53:27;;;;;;;9.65;1.17;;;10.00;99.90;;;;;;4998598;28;20034;-83
2023/10/30 00:55:54;;;;;;;6.90;1.10;;;10.00;99.90;;;;;;5028644;28;20415;-81
2023/10/30 00:58:21;;;;;;;6.80;0.70;;;10.10;99.90;;;;;;5027542;28;20048;-81
2023/10/30 01:00:47;;;;;;;7.10;1.10;;;10.10;99.90;;;;;;5015064;28;20590;-79
2023/10/30 01:03:15;;;;;;;11.18;1.90;;;10.10;99.90;;;;;;5014939;28;20029;-81
2023/10/30 01:05:41;;;;;;;8.18;1.00;;;10.10;99.90;;;;;;4996990;28;20038;-79
2023/10/30 01:08:08;;;;;;;6.55;0.98;;;10.10;99.90;;;;;;4981721;28;20060;-79
2023/10/30 01:10:36;;;;;;;7.97;0.80;;;10.20;99.90;;;;;;5013498;28;20044;-80
2023/10/30 01:13:03;;;;;;;14.32;1.48;;;10.20;99.90;;;;;;5026940;28;20068;-81
2023/10/30 01:15:29;;;;;;;8.52;0.88;;;10.20;99.90;;;;;;5014765;28;20041;-83
2023/10/30 01:17:56;;;;;;;6.97;0.80;;;10.20;99.90;;;;;;4981818;28;20044;-83
2023/10/30 01:20:22;;;;;;;7.28;0.95;;;10.20;99.90;;;;;;4998162;28;20025;-81
2023/10/30 01:22:49;;;;;;;10.35;1.17;;;10.20;99.90;;;;;;5028362;28;20037;-81
2023/10/30 01:25:15;;;;;;;6.30;1.30;;;10.20;99.90;;;;;;4982764;28;20052;-83
2023/10/30 01:27:41;;;;;;;10.40;0.80;;;10.20;99.90;;;;;;4998787;28;20045;-84
2023/10/30 01:30:08;;;;;;;5.60;1.15;;;10.20;99.90;;;;;;5014825;28;20040;-82
2023/10/30 01:32:34;;;;;;;8.25;0.98;;;10.30;99.90;;;;;;5015416;28;20123;-79
2023/10/30 01:35:00;;;;;;;6.70;1.00;;;10.30;99.90;;;;;;5017144;28;20025;-83
2023/10/30 01:37:27;;;;;;;7.22;1.33;;;10.30;99.90;;;;;;5019431;28;20237;-81
2023/10/30 01:39:54;;;;;;;9.48;0.82;;;10.30;99.90;;;;;;4987155;28;20033;-83
2023/10/30 01:42:20;;;;;;;7.47;0.90;;;10.20;99.90;;;;;;5003265;28;20500;-82
2023/10/30 01:45:05;;;;;;;6.65;0.88;;;10.30;99.90;;;;;;5004082;28;20052;-80
2023/10/30 01:47:31;;;;;;;7.10;1.20;;;10.30;99.90;;;;;;5036532;28;20045;-81
2023/10/30 01:49:59;;;;;;;12.70;1.70;;;10.30;99.90;;;;;;5019188;28;20041;-82
2023/10/30 01:52:28;;;;;;;8.90;1.08;;;10.30;99.90;;;;;;5002915;28;20469;-79
2023/10/30 01:54:55;;;;;;;10.95;1.20;;;10.30;99.90;;;;;;5002609;28;20056;-81
2023/10/30 01:57:22;;;;;;;10.98;1.10;;;10.30;99.90;;;;;;5001908;28;20037;-81
2023/10/30 01:59:52;;;;;;;8.02;1.90;;;10.30;99.90;;;;;;5018694;28;20044;-81
2023/10/30 02:02:19;;;;;;;9.70;1.27;;;10.40;99.90;;;;;;5017065;28;20557;-80
2023/10/30 02:04:46;;;;;;;7.88;0.93;;;10.40;99.90;;;;;;5016631;28;20034;-78
2023/10/30 02:07:15;;;;;;;12.25;1.13;;;10.40;99.90;;;;;;5019057;28;20017;-78
2023/10/30 02:09:43;;;;;;;7.05;1.23;;;10.40;99.90;;;;;;5016788;28;20029;-81
2023/10/30 02:12:10;;;;;;;7.82;1.75;;;10.50;99.90;;;;;;5001746;28;20041;-80
2023/10/30 02:14:36;;;;;;;8.65;1.17;;;10.40;99.90;;;;;;5018494;28;20036;-80
2023/10/30 02:17:03;;;;;;;7.80;1.50;;;10.50;99.90;;;;;;5017622;28;20084;-81
2023/10/30 02:19:29;;;;;;;6.72;0.95;;;10.50;99.90;;;;;;5018545;28;20026;-81
2023/10/30 02:21:56;;;;;;;9.55;0.90;;;10.50;99.90;;;;;;5018607;28;20025;-81
2023/10/30 02:24:23;;;;;;;7.95;0.80;;;10.50;99.90;;;;;;5019799;28;20029;-80
2023/10/30 02:26:50;;;;;;;9.25;1.45;;;10.50;99.90;;;;;;5030975;28;20449;-81
2023/10/30 02:29:17;;;;;;;7.90;1.35;;;10.50;99.90;;;;;;5000350;28;20451;-80
2023/10/30 02:31:43;;;;;;;6.25;1.08;;;10.50;99.90;;;;;;5001203;28;20484;-80
2023/10/30 02:34:12;;;;;;;5.50;0.70;;;10.50;99.90;;;;;;5000985;28;20057;-80
2023/10/30 02:36:39;;;;;;;9.23;1.38;;;10.50;99.90;;;;;;5018079;28;20033;-81
2023/10/30 02:39:07;;;;;;;5.75;0.70;;;10.50;99.90;;;;;;5026238;28;20028;-80
2023/10/30 02:41:33;;;;;;;12.50;1.42;;;10.50;99.90;;;;;;5018512;28;20030;-80
2023/10/30 02:44:00;;;;;;;8.70;1.55;;;10.50;99.90;;;;;;5017890;28;20388;-79
2023/10/30 02:46:27;;;;;;;9.40;1.17;;;10.50;99.90;;;;;;5013890;28;20640;-78
2023/10/30 02:48:53;;;;;;;10.77;0.95;;;10.50;99.90;;;;;;5003764;28;20873;-80
2023/10/30 02:51:20;;;;;;;5.22;1.10;;;10.50;99.90;;;;;;5019539;28;20041;-80
2023/10/30 02:53:46;;;;;;;9.90;1.05;;;10.50;99.90;;;;;;5017784;28;20046;-81
2023/10/30 02:56:13;;;;;;;9.73;1.20;;;10.50;99.90;;;;;;5017954;28;20041;-80
2023/10/30 02:58:39;;;;;;;6.07;1.10;;;10.60;99.90;;;;;;5001715;28;20044;-79
2023/10/30 03:01:06;;;;;;;7.28;0.93;;;10.50;99.90;;;;;;4998035;28;20041;-80
2023/10/30 03:03:32;;;;;;;8.23;1.05;;;10.50;99.90;;;;;;4984566;28;20021;-80
2023/10/30 03:05:58;;;;;;;6.40;0.93;;;10.60;99.90;;;;;;5000504;28;20033;-79
2023/10/30 03:08:25;;;;;;;6.93;0.90;;;10.60;99.90;;;;;;5016958;28;20040;-78
2023/10/30 03:10:51;;;;;;;5.22;1.10;;;10.60;99.90;;;;;;5019041;28;20029;-80
2023/10/30 03:13:17;;;;;;;4.38;0.82;;;10.60;99.90;;;;;;5017171;28;20357;-80
2023/10/30 03:15:47;;;;;;;9.52;1.10;;;10.60;99.90;;;;;;5016673;28;20052;-80
2023/10/30 03:18:13;;;;;;;7.35;1.13;;;10.50;99.90;;;;;;5030861;28;20037;-81
2023/10/30 03:20:40;;;;;;;9.57;1.45;;;10.60;99.90;;;;;;5017900;28;20035;-81
2023/10/30 03:23:06;;;;;;;8.70;1.02;;;10.50;99.90;;;;;;5017654;28;20048;-81
2023/10/30 03:25:32;;;;;;;6.80;0.80;;;10.60;99.90;;;;;;5000517;28;20431;-81
2023/10/30 03:27:59;;;;;;;8.57;1.40;;;10.60;99.90;;;;;;4999878;28;20025;-79
2023/10/30 03:30:25;;;;;;;6.72;1.00;;;10.60;99.90;;;;;;5016024;28;20495;-81
2023/10/30 03:32:51;;;;;;;6.85;1.00;;;10.50;99.90;;;;;;5018404;28;20030;-79
2023/10/30 03:35:18;;;;;;;6.93;1.20;;;10.50;99.90;;;;;;5045992;28;20036;-80
2023/10/30 03:37:44;;;;;;;6.07;1.15;;;10.50;99.90;;;;;;5019499;28;20021;-81
2023/10/30 03:40:12;;;;;;;6.65;1.17;;;10.50;99.90;;;;;;4999523;28;20309;-80
2023/10/30 03:42:38;;;;;;;5.88;0.73;;;10.50;99.90;;;;;;5017428;28;20032;-80
2023/10/30 03:45:07;;;;;;;4.72;0.90;;;10.40;99.90;;;;;;4983351;28;20040;-80
2023/10/30 03:47:33;;;;;;;2.95;0.50;;;10.40;99.90;;;;;;5011493;28;20396;-80
2023/10/30 03:50:00;;;;;;;6.28;0.95;;;10.40;99.90;;;;;;5046852;28;20030;-81
2023/10/30 03:52:27;;;;;;;5.75;0.95;;;10.30;99.90;;;;;;4982947;28;20029;-80
2023/10/30 03:54:54;;;;;;;5.57;0.80;;;10.30;99.90;;;;;;4998389;28;20040;-81
2023/10/30 03:57:21;;;;;;;4.40;0.60;;;10.30;99.90;;;;;;5016900;28;20037;-82
2023/10/30 03:59:47;;;;;;;5.03;0.47;;;10.30;99.90;;;;;;4998154;28;20033;-80
2023/10/30 04:02:13;;;;;;;6.50;0.90;;;10.20;99.90;;;;;;5014921;28;20052;-81
2023/10/30 04:04:39;;;;;;;4.57;0.90;;;10.20;99.90;;;;;;5016449;28;20046;-79
2023/10/30 04:07:06;;;;;;;3.33;0.70;;;10.20;99.90;;;;;;5017594;28;20044;-81
2023/10/30 04:09:33;;;;;;;6.75;1.10;;;10.10;99.90;;;;;;5014968;28;20634;-78
2023/10/30 04:12:02;;;;;;;6.93;0.70;;;10.10;99.90;;;;;;5012266;28;20041;-79
2023/10/30 04:14:30;;;;;;;4.95;1.30;;;10.00;99.90;;;;;;5013035;28;20484;-80
2023/10/30 04:16:57;;;;;;;4.40;0.75;;;10.00;99.90;;;;;;4999979;28;20092;-77
2023/10/30 04:19:24;;;;;;;5.75;0.75;;;10.00;99.90;;;;;;4999559;28;20052;-81
2023/10/30 04:21:50;;;;;;;5.78;0.60;;;10.00;99.90;;;;;;5015732;28;20353;-80
2023/10/30 04:24:17;;;;;;;4.43;0.70;;;9.90;99.90;;;;;;5017074;28;20029;-81
2023/10/30 04:26:43;;;;;;;4.53;0.70;;;9.90;99.90;;;;;;5015060;28;20354;-78
2023/10/30 04:29:09;;;;;;;5.35;0.60;;;9.80;99.90;;;;;;5044687;28;20029;-80
2023/10/30 04:31:35;;;;;;;4.20;0.73;;;9.80;99.90;;;;;;5016373;28;20041;-80
2023/10/30 04:34:03;;;;;;;3.72;0.57;;;9.70;99.90;;;;;;5015748;28;20041;-80
2023/10/30 04:36:29;;;;;;;5.13;0.60;;;9.60;99.90;;;;;;5016516;28;20380;-80
2023/10/30 04:38:55;;;;;;;4.68;0.50;;;9.60;99.90;;;;;;5031909;28;20029;-80
2023/10/30 04:41:22;;;;;;;2.85;0.70;;;9.60;99.90;;;;;;5016515;28;20037;-81
2023/10/30 04:43:48;;;;;;;5.35;0.80;;;9.60;99.90;;;;;;5015054;28;20282;-81
2023/10/30 04:46:14;;;;;;;2.47;0.50;;;9.50;99.90;;;;;;5015683;28;20022;-82
2023/10/30 04:48:41;;;;;;;3.85;0.60;;;9.50;99.90;;;;;;4999200;28;20396;-82
2023/10/30 04:51:07;;;;;;;4.25;0.70;;;9.50;99.90;;;;;;5009234;28;20025;-80
2023/10/30 04:53:33;;;;;;;3.78;0.55;;;9.50;99.90;;;;;;5015983;28;20057;-80
2023/10/30 04:56:02;;;;;;;6.75;0.70;;;9.40;99.90;;;;;;4999018;28;20048;-82
2023/10/30 04:58:28;;;;;;;5.93;0.60;;;9.40;99.90;;;;;;4998320;28;20036;-81
2023/10/30 05:00:54;;;;;;;4.10;0.57;;;9.40;99.90;;;;;;5016756;28;21970;-81
2023/10/30 05:03:21;;;;;;;2.67;0.50;;;9.40;99.90;;;;;;4999015;28;20026;-80
2023/10/30 05:05:47;;;;;;;3.55;0.40;;;9.30;99.90;;;;;;4997686;28;20029;-82
2023/10/30 05:08:14;;;;;;;2.58;0.80;;;9.30;99.90;;;;;;4998581;28;20033;-82
2023/10/30 05:10:40;;;;;;;4.63;0.60;;;9.30;99.90;;;;;;5020223;28;20033;-82
2023/10/30 05:13:07;;;;;;;5.30;0.70;;;9.30;99.90;;;;;;5014795;28;20053;-82
2023/10/30 05:15:33;;;;;;;5.57;0.68;;;9.30;99.90;;;;;;5019517;28;20040;-81
2023/10/30 05:17:59;;;;;;;7.93;0.70;;;9.30;99.90;;;;;;5048248;28;20732;-81
2023/10/30 05:20:26;;;;;;;5.60;0.60;;;9.30;99.90;;;;;;5018552;28;20376;-82
2023/10/30 05:22:52;;;;;;;5.85;1.20;;;9.30;99.90;;;;;;5020385;28;20032;-81
2023/10/30 05:25:20;;;;;;;3.15;0.70;;;9.30;99.90;;;;;;4999720;28;20044;-82
2023/10/30 05:27:46;;;;;;;4.40;0.70;;;9.30;99.90;;;;;;5049336;28;20037;-81
2023/10/30 05:30:13;;;;;;;3.67;0.80;;;9.30;99.90;;;;;;5019171;28;20420;-79
2023/10/30 05:32:40;;;;;;;4.95;0.68;;;9.30;99.90;;;;;;5018329;28;20500;-81
2023/10/30 05:35:06;;;;;;;2.97;0.60;;;9.30;99.90;;;;;;5001635;28;20041;-81
2023/10/30 05:37:33;;;;;;;4.80;1.02;;;9.30;99.90;;;;;;5001602;28;20069;-79
2023/10/30 05:39:59;;;;;;;6.90;0.73;;;9.30;99.90;;;;;;5021671;28;20034;-78
2023/10/30 05:42:26;;;;;;;5.18;0.82;;;9.30;99.90;;;;;;5019899;28;20060;-80
2023/10/30 05:44:52;;;;;;;3.67;0.60;;;9.30;99.90;;;;;;5002550;28;20358;-81
2023/10/30 05:47:19;;;;;;;3.42;0.50;;;9.30;99.90;;;;;;5019400;28;20024;-81
2023/10/30 05:49:45;;;;;;;5.50;0.70;;;9.30;99.90;;;;;;5017891;28;20037;-79
2023/10/30 05:52:11;;;;;;;5.90;0.68;;;9.30;99.90;;;;;;5019078;28;20361;-77
2023/10/30 05:54:38;;;;;;;4.35;1.00;;;9.30;99.90;;;;;;5017616;28;21075;-80
2023/10/30 05:57:05;;;;;;;5.05;0.50;;;9.30;99.90;;;;;;5000478;28;20028;-81
2023/10/30 05:59:31;;;;;;;2.80;0.63;;;9.30;99.90;;;;;;5019093;28;20025;-81
2023/10/30 06:01:58;;;;;;;3.75;0.57;;;9.20;99.90;;;;;;4984704;28;20044;-77
2023/10/30 06:04:24;;;;;;;2.25;0.40;;;9.20;99.90;;;;;;5018420;28;20472;-81
2023/10/30 06:06:50;;;;;;;1.52;0.50;;;9.20;99.90;;;;;;4985052;28;20041;-80
2023/10/30 06:09:17;;;;;;;4.60;0.60;;;9.20;99.90;;;;;;5032857;28;20044;-81
2023/10/30 06:11:47;;;;;;;4.25;0.70;;;9.20;99.90;;;;;;5018727;28;20029;-81
2023/10/30 06:14:13;;;;;;;1.85;0.40;;;9.20;99.90;;;;;;5017969;28;20034;-81
2023/10/30 06:16:40;;;;;;;7.13;0.60;;;9.20;99.90;;;;;;5017054;28;20033;-81
2023/10/30 06:19:07;;;;;;;5.07;0.45;;;9.20;99.90;;;;;;4984385;28;20052;-81
2023/10/30 06:21:35;;;;;;;5.88;0.70;;;9.20;99.90;;;;;;4999956;28;20021;-81
2023/10/30 06:24:01;;;;;;;5.65;0.60;;;9.20;99.90;;;;;;5001472;28;20032;-81
2023/10/30 06:26:27;;;;;;;2.63;0.52;;;9.10;99.90;;;;;;5001530;28;20042;-79
2023/10/30 06:28:53;;;;;;;4.45;0.60;;;9.20;99.90;;;;;;5047629;28;20859;-80
2023/10/30 06:31:20;;;;;;;4.47;1.00;;;9.10;99.90;;;;;;5018487;28;20614;-81
2023/10/30 06:33:46;;;;;;;5.35;0.60;;;9.10;99.90;;;;;;5017705;28;20025;-79
2023/10/30 06:36:13;;;;;;;4.90;0.60;;;9.10;99.90;;;;;;5016904;28;20514;-81
2023/10/30 06:38:39;;;;;;;7.13;0.68;;;9.10;99.90;;;;;;5049858;28;20037;-79
2023/10/30 06:41:06;;;;;;;4.05;0.50;;;9.10;99.90;;;;;;5019010;28;20515;-83
2023/10/30 06:43:33;;;;;;;3.55;0.50;;;9.00;99.90;;;;;;5000868;28;20029;-79
2023/10/30 06:46:03;;;;;;;3.72;0.50;;;9.10;99.90;;;;;;4999456;28;20048;-79
2023/10/30 06:48:30;;;;;;;6.15;1.60;;;9.10;99.90;;;;;;5030883;28;20104;-79
2023/10/30 06:50:57;;;;;;;8.50;6.00;;;9.10;99.90;;;;;;5015513;28;20034;-79
2023/10/30 06:53:24;;;;;;;11.02;6.55;;;9.10;99.90;;;;;;5018856;28;20037;-79
2023/10/30 06:55:50;;;;;;;9.25;5.43;;;9.10;99.90;;;;;;5000064;28;20041;-80
2023/10/30 06:58:17;;;;;;;10.90;3.45;;;9.00;99.90;;;;;;5016666;28;20056;-80
2023/10/30 07:00:45;;;;;;;6.40;2.65;;;9.00;99.90;;;;;;4983775;28;20568;-79
2023/10/30 07:03:11;;;;;;;5.68;2.13;;;9.00;99.90;;;;;;5002884;28;20033;-80
2023/10/30 07:05:38;;;;;;;5.63;1.95;;;9.10;99.90;;;;;;5017605;28;20056;-82
2023/10/30 07:08:04;;;;;;;10.93;7.35;;;9.10;99.90;;;;;;4999748;28;20037;-78
2023/10/30 07:10:31;;;;;;;18.17;7.68;;;9.20;99.90;;;;;;5000658;28;21117;-80
2023/10/30 07:12:57;;;;;;;11.75;5.53;;;9.20;99.90;;;;;;5017233;28;20033;-80
2023/10/30 07:15:26;;;;;;;9.10;3.75;;;9.30;99.90;;;;;;5016721;28;20515;-79
2023/10/30 07:17:57;;;;;;;8.73;2.83;;;9.30;99.90;;;;;;5010666;28;20033;-79
2023/10/30 07:20:23;;;;;;;7.88;2.03;;;9.40;99.90;;;;;;5000236;28;20339;-79
2023/10/30 07:22:50;;;;;;;6.03;1.27;;;9.50;99.90;;;;;;5016843;28;20718;-76
2023/10/30 07:25:16;;;;;;;5.78;1.45;;;9.60;99.90;;;;;;4998729;28;20029;-80
2023/10/30 07:27:43;;;;;;;6.22;1.33;;;9.60;99.90;;;;;;4999892;28;20682;-80
2023/10/30 07:30:09;;;;;;;9.07;1.35;;;9.70;99.90;;;;;;5014904;28;20044;-77
2023/10/30 07:32:36;;;;;;;6.88;0.90;;;9.80;99.90;;;;;;5015920;28;20037;-80
2023/10/30 07:35:03;;;;;;;5.50;0.90;;;9.90;99.90;;;;;;5016002;28;20496;-80
2023/10/30 07:37:30;;;;;;;8.85;1.90;;;10.00;99.90;;;;;;5030890;28;20030;-76
2023/10/30 07:39:56;;;;;;;13.45;3.47;;;10.10;99.90;;;;;;5019178;28;20033;-78
2023/10/30 07:42:22;;;;;;;13.02;5.03;;;10.20;99.90;;;;;;4999864;28;20042;-80
2023/10/30 07:44:49;;;;;;;9.15;3.63;;;10.30;99.90;;;;;;4980048;28;20041;-77
2023/10/30 07:47:15;;;;;;;12.27;2.72;;;10.40;99.90;;;;;;4987817;28;20512;-80
2023/10/30 07:49:41;;;;;;;7.53;2.13;;;10.40;99.90;;;;;;5014626;28;20037;-80
2023/10/30 07:52:08;;;;;;;8.48;2.20;;;10.50;99.90;;;;;;5014090;28;20029;-79
2023/10/30 07:54:34;;;;;;;18.83;3.03;;;10.60;99.90;;;;;;4982208;28;20057;-79
2023/10/30 07:57:00;;;;;;;8.23;1.70;;;10.60;99.90;;;;;;5015081;28;20041;-79
2023/10/30 07:59:27;;;;;;;6.85;1.90;;;10.60;99.90;;;;;;5015566;28;20495;-78
2023/10/30 08:01:53;;;;;;;7.57;1.40;;;10.70;99.90;;;;;;5045160;28;20022;-76
2023/10/30 08:04:19;;;;;;;8.00;1.20;;;10.70;99.90;;;;;;4998449;28;20026;-80
2023/10/30 08:06:46;;;;;;;6.75;0.98;;;10.70;99.90;;;;;;4999379;28;20052;-79
2023/10/30 08:09:12;;;;;;;4.90;1.05;;;10.70;99.90;;;;;;5018142;28;20724;-79
2023/10/30 08:11:38;;;;;;;7.55;1.20;;;10.70;99.90;;;;;;5013418;28;20041;-80
2023/10/30 08:14:04;;;;;;;7.13;1.65;;;10.80;99.90;;;;;;5000407;28;20032;-80
2023/10/30 08:16:34;;;;;;;8.40;1.70;;;10.80;99.90;;;;;;5027581;28;20472;-79
2023/10/30 08:19:01;;;;;;;8.10;1.30;;;10.90;99.90;;;;;;5045091;28;20044;-80
2023/10/30 08:21:28;;;;;;;5.75;1.20;;;11.00;99.90;;;;;;4998050;28;20037;-79
2023/10/30 08:23:55;;;;;;;7.45;1.80;;;11.10;99.90;;;;;;4998784;28;20048;-80
2023/10/30 08:26:22;;;;;;;8.82;1.40;;;11.20;99.90;;;;;;4998641;28;20147;-80
2023/10/30 08:28:49;;;;;;;10.57;1.75;;;11.40;99.90;;;;;;5016546;28;20080;-79
2023/10/30 08:31:16;;;;;;;6.90;1.17;;;11.50;99.90;;;;;;5014874;28;20468;-79
2023/10/30 08:33:42;;;;;;;7.88;1.67;;;11.60;99.90;;;;;;5030024;28;20029;-80
2023/10/30 08:36:08;;;;;;;6.82;1.63;;;11.70;99.90;;;;;;4999690;28;20033;-78
2023/10/30 08:38:36;;;;;;;7.25;1.45;;;11.90;99.90;;;;;;5010607;28;20040;-78
2023/10/30 08:41:02;;;;;;;12.05;1.67;;;12.00;99.90;;;;;;4999198;28;20033;-78
2023/10/30 08:43:28;;;;;;;10.95;1.83;;;12.20;99.90;;;;;;5016781;28;20044;-77
2023/10/30 08:45:55;;;;;;;8.27;1.80;;;12.30;99.90;;;;;;4997685;28;20068;-77
2023/10/30 08:48:21;;;;;;;4.03;1.10;;;12.40;99.90;;;;;;5014806;28;20030;-78
2023/10/30 08:50:48;;;;;;;6.15;1.27;;;12.60;99.90;;;;;;5015254;28;20583;-79
2023/10/30 08:53:15;;;;;;;13.40;1.80;;;12.70;99.90;;;;;;4998459;28;20412;-79
2023/10/30 08:55:41;;;;;;;9.50;1.17;;;12.80;99.90;;;;;;4997903;28;20476;-78
2023/10/30 08:58:08;;;;;;;10.68;1.45;;;12.90;99.90;;;;;;4995750;28;20538;-77
2023/10/30 09:00:35;;;;;;;7.10;1.33;;;13.00;99.90;;;;;;4999157;28;21063;-78
2023/10/30 09:03:02;;;;;;;5.53;1.48;;;13.00;99.90;;;;;;5016206;28;20029;-79
2023/10/30 09:05:28;;;;;;;8.48;1.15;;;13.00;99.90;;;;;;5014926;28;20029;-78
2023/10/30 09:07:55;;;;;;;6.78;1.10;;;13.00;99.90;;;;;;5014603;28;20021;-77
2023/10/30 09:10:26;;;;;;;8.32;1.23;;;13.00;99.90;;;;;;4996117;28;20049;-78
2023/10/30 09:12:52;;;;;;;8.30;1.33;;;13.10;99.90;;;;;;5011992;28;20040;-78
2023/10/30 09:15:19;;;;;;;9.45;1.27;;;13.20;99.90;;;;;;5014115;28;20045;-78
2023/10/30 09:17:45;;;;;;;7.15;0.88;;;13.20;99.90;;;;;;5015796;28;20036;-78
2023/10/30 09:20:12;;;;;;;7.30;0.90;;;13.30;99.90;;;;;;5044124;28;21021;-77
2023/10/30 09:22:38;;;;;;;6.88;1.20;;;13.40;99.90;;;;;;5020779;28;20588;-78
2023/10/30 09:25:06;;;;;;;9.23;0.85;;;13.50;99.90;;;;;;5027092;28;20040;-77
2023/10/30 09:27:32;;;;;;;9.18;0.93;;;13.50;99.90;;;;;;4998153;28;20373;-78
2023/10/30 09:29:59;;;;;;;8.48;0.90;;;13.60;99.90;;;;;;4997118;28;20372;-77
2023/10/30 09:32:25;;;;;;;7.28;1.00;;;13.60;99.90;;;;;;4981242;28;20041;-78
2023/10/30 09:34:52;;;;;;;7.82;1.30;;;13.60;99.90;;;;;;5016183;28;20037;-78
2023/10/30 09:37:18;;;;;;;9.13;1.15;;;13.70;99.90;;;;;;4981386;28;20473;-78
2023/10/30 09:39:44;;;;;;;6.15;1.25;;;13.80;99.90;;;;;;5014456;28;20040;-76
2023/10/30 09:42:11;;;;;;;9.23;1.73;;;13.90;99.90;;;;;;4998180;28;20037;-77
2023/10/30 09:44:37;;;;;;;10.43;1.63;;;13.90;99.90;;;;;;4998698;28;20041;-78
2023/10/30 09:47:04;;;;;;;9.40;1.33;;;14.00;99.90;;;;;;5014429;28;20049;-78
2023/10/30 09:49:32;;;;;;;3.45;0.70;;;14.00;99.90;;;;;;5044590;28;20033;-79
2023/10/30 09:51:59;;;;;;;8.82;0.90;;;14.20;99.90;;;;;;4997263;28;20048;-79
2023/10/30 09:54:27;;;;;;;5.90;0.95;;;14.30;99.90;;;;;;5014200;28;20396;-79
2023/10/30 09:56:54;;;;;;;8.13;1.23;;;14.40;99.90;;;;;;5000581;28;20038;-78
2023/10/30 09:59:21;;;;;;;7.45;1.25;;;14.50;99.90;;;;;;4984942;28;20046;-78
2023/10/30 10:01:48;;;;;;;7.47;1.27;;;14.50;99.90;;;;;;5017863;28;20024;-77
2023/10/30 10:04:15;;;;;;;6.70;1.70;;;14.50;99.90;;;;;;5017734;28;20503;-76
2023/10/30 10:06:42;;;;;;;4.15;0.80;;;14.50;99.90;;;;;;5018098;28;20373;-78
2023/10/30 10:09:09;;;;;;;5.63;0.75;;;14.50;99.90;;;;;;5019201;28;20018;-77
2023/10/30 10:11:36;;;;;;;6.25;1.13;;;14.60;99.90;;;;;;5018407;28;20032;-78
2023/10/30 10:14:04;;;;;;;7.50;1.00;;;14.60;99.90;;;;;;5001653;28;21216;-79
2023/10/30 10:16:30;;;;;;;5.63;0.75;;;14.60;99.90;;;;;;5050576;28;20048;-77
2023/10/30 10:18:57;;;;;;;5.80;0.93;;;14.60;99.90;;;;;;5018945;28;20033;-77
2023/10/30 10:21:23;;;;;;;8.43;1.10;;;14.60;99.90;;;;;;5020042;28;20037;-77
2023/10/30 10:23:49;;;;;;;6.20;1.25;;;14.60;99.90;;;;;;5047339;28;20037;-76
2023/10/30 10:26:16;;;;;;;9.35;2.50;;;14.60;99.90;;;;;;5019587;28;20049;-76
2023/10/30 10:28:47;;;;;;;6.22;1.00;;;14.60;99.90;;;;;;5017759;28;20524;-78
2023/10/30 10:31:14;;;;;;;7.03;0.90;;;14.60;99.90;;;;;;5016412;28;20032;-78
2023/10/30 10:33:40;;;;;;;8.02;0.88;;;14.60;99.90;;;;;;5011465;28;20037;-77
2023/10/30 10:36:07;;;;;;;9.40;1.42;;;14.60;99.90;;;;;;5001453;28;20049;-77
2023/10/30 10:38:35;;;;;;;4.88;1.10;;;14.50;99.90;;;;;;4983497;28;20052;-78
2023/10/30 10:41:03;;;;;;;3.80;0.90;;;14.50;99.90;;;;;;5017236;28;20060;-76
2023/10/30 10:43:30;;;;;;;7.38;1.20;;;14.50;99.90;;;;;;5017519;28;20044;-77
2023/10/30 10:45:57;;;;;;;6.35;1.25;;;14.50;99.90;;;;;;5018170;28;20021;-78
2023/10/30 10:48:25;;;;;;;6.32;0.95;;;14.50;99.90;;;;;;5000489;28;20022;-78
2023/10/30 10:50:55;;;;;;;7.35;0.88;;;14.40;99.90;;;;;;5031729;28;20026;-78
2023/10/30 10:53:23;;;;;;;5.50;0.80;;;14.50;99.90;;;;;;5000257;28;20042;-78
2023/10/30 10:55:50;;;;;;;4.10;0.70;;;14.40;99.90;;;;;;5031082;28;20029;-78
2023/10/30 10:58:40;;;;;;;7.38;1.95;;;14.40;99.90;;;;;;5017170;28;20040;-78
2023/10/30 11:01:08;;;;;;;7.90;3.30;;;14.40;99.90;;;;;;5016612;28;20758;-78
2023/10/30 11:03:36;;;;;;;7.43;2.28;;;14.50;99.90;;;;;;5032044;28;20070;-83
2023/10/30 11:06:06;;;;;;;8.88;2.50;;;14.60;99.90;;;;;;4999634;28;20168;-80
2023/10/30 11:08:50;;;;;;;8.30;2.67;;;14.70;99.90;;;;;;5000214;28;20043;-80
2023/10/30 11:11:30;;;;;;;9.70;1.80;;;14.80;99.90;;;;;;5000551;28;20480;-78
2023/10/30 11:14:35;;;;;;;5.75;1.52;;;14.80;99.90;;;;;;4984920;28;20444;-79
2023/10/30 11:17:03;;;;;;;7.78;2.25;;;14.90;99.90;;;;;;5000253;28;20042;-80
2023/10/30 11:19:29;;;;;;;5.88;1.23;;;14.90;99.90;;;;;;5001225;28;20045;-80
2023/10/30 11:21:56;;;;;;;3.50;0.90;;;14.90;99.90;;;;;;5018348;28;20457;-80
2023/10/30 11:24:36;;;;;;;5.75;0.95;;;15.00;99.90;;;;;;5025672;28;20040;-79
2023/10/30 11:27:25;;;;;;;4.95;0.70;;;14.90;99.90;;;;;;5029623;28;20033;-79
2023/10/30 11:29:52;;;;;;;7.38;1.15;;;15.00;99.90;;;;;;4981191;28;20916;-80
2023/10/30 11:32:18;;;;;;;4.63;0.80;;;15.00;99.90;;;;;;5002258;28;20030;-79
2023/10/30 11:34:44;;;;;;;9.75;1.33;;;15.00;99.90;;;;;;5017710;28;20377;-78
2023/10/30 11:37:12;;;;;;;5.75;0.75;;;15.10;99.90;;;;;;5016185;28;20040;-79
2023/10/30 11:39:45;;;;;;;5.07;0.90;;;15.10;99.90;;;;;;5012974;28;20033;-78
2023/10/30 11:42:41;;;;;;;5.30;0.65;;;15.20;99.90;;;;;;5016742;28;20472;-80
2023/10/30 11:45:24;;;;;;;4.18;0.80;;;15.30;99.90;;;;;;4997997;28;20060;-80
2023/10/30 11:48:05;;;;;;;10.20;2.45;;;15.40;99.90;;;;;;5000936;28;20022;-80
2023/10/30 11:50:45;;;;;;;8.75;1.83;;;15.40;99.90;;;;;;4999860;28;20404;-80
2023/10/30 11:53:16;;;;;;;4.07;0.90;;;15.40;99.90;;;;;;5028846;28;20026;-80
2023/10/30 11:55:42;;;;;;;7.15;0.80;;;15.40;99.90;;;;;;4984414;28;20025;-80
2023/10/30 11:58:12;;;;;;;3.92;0.70;;;15.40;99.90;;;;;;5016889;28;20038;-77
2023/10/30 12:00:41;;;;;;;5.03;0.95;;;15.40;99.90;;;;;;5017309;28;20133;-80
2023/10/30 12:03:08;;;;;;;5.13;0.90;;;15.50;99.90;;;;;;5008200;28;20040;-79
2023/10/30 12:05:35;;;;;;;2.67;0.50;;;15.40;99.90;;;;;;4999886;28;20037;-79
2023/10/30 12:08:01;;;;;;;5.05;0.88;;;15.30;99.90;;;;;;5015055;28;20025;-79
2023/10/30 12:10:27;;;;;;;6.35;0.90;;;15.20;99.90;;;;;;4997415;28;20440;-79
2023/10/30 12:12:54;;;;;;;3.45;1.05;;;15.20;99.90;;;;;;5016070;28;20596;-80
2023/10/30 12:15:21;;;;;;;4.78;0.50;;;15.00;99.90;;;;;;5012836;28;20033;-79
2023/10/30 12:17:47;;;;;;;3.90;0.70;;;14.90;99.90;;;;;;4999723;28;20025;-80
2023/10/30 12:20:14;;;;;;;5.88;0.90;;;14.90;99.90;;;;;;4998540;28;20041;-79
2023/10/30 12:22:42;;;;;;;4.35;0.60;;;14.90;99.90;;;;;;5030853;28;20037;-79
2023/10/30 12:25:14;;;;;;;2.72;0.50;;;14.80;99.90;;;;;;5015684;28;20384;-79
2023/10/30 12:27:41;;;;;;;4.35;0.90;;;14.80;99.90;;;;;;5016794;28;20040;-79
2023/10/30 12:30:17;;;;;;;2.22;0.60;;;14.80;99.90;;;;;;5000385;28;20345;-79
2023/10/30 12:32:54;;;;;;;2.83;0.47;;;14.80;99.90;;;;;;5015822;28;20037;-80
2023/10/30 12:35:20;;;;;;;2.15;0.50;;;14.90;99.90;;;;;;5008927;28;20587;-80
2023/10/30 12:37:46;;;;;;;2.50;0.60;;;14.90;99.90;;;;;;5000537;28;20025;-79
2023/10/30 12:40:13;;;;;;;3.10;0.60;;;14.90;99.90;;;;;;5000349;28;20033;-79
2023/10/30 12:42:40;;;;;;;4.78;0.68;;;14.90;99.90;;;;;;4999090;28;20025;-79
2023/10/30 12:45:11;;;;;;;3.88;0.50;;;14.90;99.90;;;;;;5016825;28;20460;-79
2023/10/30 12:47:39;;;;;;;3.72;0.70;;;14.90;99.90;;;;;;5016250;28;20515;-79
2023/10/30 12:50:06;;;;;;;2.83;0.60;;;14.90;99.90;;;;;;4982978;28;20036;-79